createdAt,value
2016-05-11T00:00:36.543Z,22.79
2016-05-11T00:01:36.686Z,22.84
2016-05-11T00:02:36.501Z,22.84
2016-05-11T00:03:37.098Z,22.81
2016-05-11T00:04:36.647Z,22.86
2016-05-11T00:05:36.478Z,22.84
2016-05-11T00:06:36.466Z,22.86
2016-05-11T00:07:36.608Z,22.76
2016-05-11T00:08:36.597Z,22.79
2016-05-11T00:09:36.427Z,22.75
2016-05-11T00:10:36.601Z,22.79
2016-05-11T00:11:37.151Z,22.81
2016-05-11T00:12:36.388Z,22.85
2016-05-11T00:13:36.530Z,22.84
2016-05-11T00:14:36.363Z,22.82
2016-05-11T00:15:36.349Z,22.81
2016-05-11T00:16:36.493Z,22.79
2016-05-11T00:17:36.338Z,22.82
2016-05-11T00:18:36.482Z,22.81
2016-05-11T00:19:37.110Z,22.82
2016-05-11T00:20:36.456Z,22.84
2016-05-11T00:21:36.459Z,22.81
2016-05-11T00:22:36.430Z,22.82
2016-05-11T00:23:36.417Z,22.85
2016-05-11T00:24:36.405Z,22.86
2016-05-11T00:25:36.235Z,22.85
2016-05-11T00:26:36.238Z,22.88
2016-05-11T00:27:36.413Z,22.82
2016-05-11T00:28:36.353Z,22.86
2016-05-11T00:29:36.356Z,22.85
2016-05-11T00:30:36.342Z,22.79
2016-05-11T00:31:36.345Z,22.81
2016-05-11T00:32:36.317Z,22.74
2016-05-11T00:33:36.304Z,22.81
2016-05-11T00:34:36.134Z,22.79
2016-05-11T00:35:36.434Z,22.82
2016-05-11T00:36:36.265Z,22.81
2016-05-11T00:37:36.267Z,22.82
2016-05-11T00:38:36.098Z,22.79
2016-05-11T00:39:36.226Z,22.79
2016-05-11T00:40:36.228Z,22.79
2016-05-11T00:41:36.044Z,22.84
2016-05-11T00:42:36.202Z,22.79
2016-05-11T00:43:36.441Z,22.76
2016-05-11T00:44:36.177Z,22.81
2016-05-11T00:45:36.008Z,22.79
2016-05-11T00:46:36.152Z,22.76
2016-05-11T00:47:36.138Z,22.79
2016-05-11T00:48:36.125Z,22.81
2016-05-11T00:49:36.113Z,22.79
2016-05-11T00:50:36.099Z,22.76
2016-05-11T00:51:36.446Z,22.79
2016-05-11T00:52:36.104Z,22.78
2016-05-11T00:53:36.076Z,22.81
2016-05-11T00:54:36.048Z,22.81
2016-05-11T00:55:36.051Z,22.76
2016-05-11T00:56:36.037Z,22.79
2016-05-11T00:57:35.868Z,22.78
2016-05-11T00:58:36.059Z,22.81
2016-05-11T00:59:36.451Z,22.75
2016-05-11T01:00:35.861Z,22.79
2016-05-11T01:01:35.816Z,22.75
2016-05-11T01:02:35.959Z,22.75
2016-05-11T01:03:35.962Z,22.75
2016-05-11T01:04:35.934Z,22.78
2016-05-11T01:05:35.937Z,22.64
2016-05-11T01:06:36.064Z,22.79
2016-05-11T01:07:35.895Z,22.79
2016-05-11T01:08:35.882Z,22.79
2016-05-11T01:09:35.885Z,22.84
2016-05-11T01:10:35.872Z,22.79
2016-05-11T01:11:35.703Z,22.78
2016-05-11T01:12:35.690Z,22.82
2016-05-11T01:13:35.849Z,22.78
2016-05-11T01:14:36.055Z,22.78
2016-05-11T01:15:37.479Z,22.79
2016-05-11T01:16:35.795Z,22.85
2016-05-11T01:17:35.781Z,22.86
2016-05-11T01:18:35.768Z,22.76
2016-05-11T01:19:35.755Z,22.82
2016-05-11T01:20:35.602Z,22.84
2016-05-11T01:21:35.730Z,22.79
2016-05-11T01:22:36.076Z,22.78
2016-05-11T01:23:35.719Z,22.76
2016-05-11T01:24:35.690Z,22.84
2016-05-11T01:25:35.694Z,22.81
2016-05-11T01:26:35.696Z,22.86
2016-05-11T01:27:35.512Z,22.78
2016-05-11T01:28:35.655Z,22.84
2016-05-11T01:29:35.657Z,22.82
2016-05-11T01:30:35.941Z,22.86
2016-05-11T01:31:35.615Z,22.86
2016-05-11T01:32:35.619Z,22.81
2016-05-11T01:33:35.590Z,22.75
2016-05-11T01:34:35.593Z,22.82
2016-05-11T01:35:35.580Z,22.88
2016-05-11T01:36:35.567Z,22.84
2016-05-11T01:37:35.553Z,22.88
2016-05-11T01:38:35.932Z,22.79
2016-05-11T01:39:35.528Z,22.79
2016-05-11T01:40:35.514Z,22.85
2016-05-11T01:41:35.503Z,22.78
2016-05-11T01:42:35.489Z,22.85
2016-05-11T01:43:35.477Z,22.78
2016-05-11T01:44:35.480Z,22.85
2016-05-11T01:45:35.513Z,22.84
2016-05-11T01:46:36.093Z,22.7
2016-05-11T01:47:35.424Z,22.79
2016-05-11T01:48:35.412Z,22.85
2016-05-11T01:49:35.414Z,22.81
2016-05-11T01:50:35.402Z,22.81
2016-05-11T01:51:35.216Z,22.81
2016-05-11T01:52:35.376Z,22.85
2016-05-11T01:53:35.363Z,22.84
2016-05-11T01:54:35.349Z,22.85
2016-05-11T01:55:35.337Z,22.82
2016-05-11T01:56:35.340Z,22.82
2016-05-11T01:57:35.327Z,22.78
2016-05-11T01:58:35.298Z,22.76
2016-05-11T01:59:35.285Z,22.79
2016-05-11T02:00:35.131Z,22.85
2016-05-11T02:01:35.275Z,22.81
2016-05-11T02:02:35.261Z,22.81
2016-05-11T02:03:35.249Z,22.86
2016-05-11T02:04:35.080Z,22.81
2016-05-11T02:05:35.207Z,22.81
2016-05-11T02:06:35.209Z,22.81
2016-05-11T02:07:35.041Z,22.79
2016-05-11T02:08:35.184Z,22.81
2016-05-11T02:09:35.030Z,22.85
2016-05-11T02:10:35.408Z,22.84
2016-05-11T02:11:35.145Z,22.75
2016-05-11T02:12:35.148Z,22.84
2016-05-11T02:13:35.150Z,22.82
2016-05-11T02:14:35.122Z,22.79
2016-05-11T02:15:35.641Z,22.78
2016-05-11T02:16:34.956Z,22.82
2016-05-11T02:17:35.083Z,22.78
2016-05-11T02:18:35.258Z,22.78
2016-05-11T02:19:35.058Z,22.84
2016-05-11T02:20:35.044Z,22.86
2016-05-11T02:21:35.032Z,22.78
2016-05-11T02:22:34.863Z,22.84
2016-05-11T02:23:34.849Z,22.79
2016-05-11T02:24:35.008Z,22.78
2016-05-11T02:25:35.026Z,22.84
2016-05-11T02:26:35.420Z,22.74
2016-05-11T02:27:34.970Z,22.81
2016-05-11T02:28:34.941Z,22.82
2016-05-11T02:29:34.943Z,22.78
2016-05-11T02:30:35.181Z,22.82
2016-05-11T02:31:34.762Z,22.79
2016-05-11T02:32:34.905Z,22.78
2016-05-11T02:33:35.032Z,22.79
2016-05-11T02:34:34.723Z,22.84
2016-05-11T02:35:34.881Z,22.79
2016-05-11T02:36:34.853Z,22.81
2016-05-11T02:37:34.856Z,22.85
2016-05-11T02:38:34.687Z,22.81
2016-05-11T02:39:34.815Z,22.81
2016-05-11T02:40:34.817Z,22.81
2016-05-11T02:41:35.054Z,22.79
2016-05-11T02:42:34.806Z,22.84
2016-05-11T02:43:34.778Z,22.81
2016-05-11T02:44:34.765Z,22.82
2016-05-11T02:45:34.456Z,22.75
2016-05-11T02:46:34.771Z,22.75
2016-05-11T02:47:34.727Z,22.86
2016-05-11T02:48:34.714Z,22.81
2016-05-11T02:49:35.060Z,22.78
2016-05-11T02:50:34.703Z,22.82
2016-05-11T02:51:34.675Z,22.78
2016-05-11T02:52:34.677Z,22.85
2016-05-11T02:53:34.665Z,22.78
2016-05-11T02:54:34.652Z,22.82
2016-05-11T02:55:34.638Z,22.84
2016-05-11T02:56:34.626Z,22.85
2016-05-11T02:57:35.081Z,22.84
2016-05-11T02:58:34.616Z,22.85
2016-05-11T02:59:34.603Z,22.81
2016-05-11T03:00:34.699Z,22.79
2016-05-11T03:01:34.561Z,22.78
2016-05-11T03:02:34.548Z,22.84
2016-05-11T03:03:34.534Z,22.75
2016-05-11T03:04:34.522Z,22.78
2016-05-11T03:05:35.182Z,22.78
2016-05-11T03:06:34.512Z,22.78
2016-05-11T03:07:34.499Z,22.79
2016-05-11T03:08:34.486Z,22.78
2016-05-11T03:09:34.473Z,22.79
2016-05-11T03:10:34.444Z,22.81
2016-05-11T03:11:34.463Z,22.79
2016-05-11T03:12:34.434Z,22.81
2016-05-11T03:13:35.078Z,22.75
2016-05-11T03:14:34.252Z,22.81
2016-05-11T03:15:34.395Z,22.78
2016-05-11T03:16:34.414Z,22.81
2016-05-11T03:17:34.386Z,22.85
2016-05-11T03:18:34.357Z,22.78
2016-05-11T03:19:34.375Z,22.78
2016-05-11T03:20:34.346Z,22.79
2016-05-11T03:21:34.396Z,22.79
2016-05-11T03:22:34.321Z,22.79
2016-05-11T03:23:34.307Z,22.79
2016-05-11T03:24:34.295Z,22.78
2016-05-11T03:25:34.141Z,22.78
2016-05-11T03:26:34.269Z,22.85
2016-05-11T03:27:34.288Z,22.86
2016-05-11T03:28:34.274Z,22.82
2016-05-11T03:29:35.026Z,22.76
2016-05-11T03:30:34.614Z,22.85
2016-05-11T03:31:34.266Z,22.78
2016-05-11T03:32:34.276Z,22.81
2016-05-11T03:33:34.319Z,22.78
2016-05-11T03:34:34.346Z,22.78
2016-05-11T03:35:34.353Z,22.75
2016-05-11T03:36:34.370Z,22.81
2016-05-11T03:37:34.605Z,22.74
2016-05-11T03:38:34.372Z,22.85
2016-05-11T03:39:34.374Z,22.76
2016-05-11T03:40:34.217Z,22.79
2016-05-11T03:41:34.365Z,22.78
2016-05-11T03:42:34.216Z,22.78
2016-05-11T03:43:34.349Z,22.76
2016-05-11T03:44:34.357Z,22.79
2016-05-11T03:45:34.692Z,22.79
2016-05-11T03:46:34.338Z,22.79
2016-05-11T03:47:34.326Z,22.79
2016-05-11T03:48:34.158Z,22.78
2016-05-11T03:49:34.304Z,22.75
2016-05-11T03:50:34.293Z,22.78
2016-05-11T03:51:34.124Z,22.79
2016-05-11T03:52:34.268Z,22.78
2016-05-11T03:53:34.537Z,22.81
2016-05-11T03:54:34.274Z,22.79
2016-05-11T03:55:34.246Z,22.79
2016-05-11T03:56:34.061Z,22.78
2016-05-11T03:57:34.221Z,22.81
2016-05-11T03:58:34.052Z,22.76
2016-05-11T03:59:34.180Z,22.84
2016-05-11T04:00:34.153Z,22.82
2016-05-11T04:01:34.186Z,22.82
2016-05-11T04:02:34.158Z,22.81
2016-05-11T04:03:34.145Z,22.76
2016-05-11T04:04:34.131Z,22.76
2016-05-11T04:05:34.118Z,22.84
2016-05-11T04:06:34.121Z,22.85
2016-05-11T04:07:34.109Z,22.82
2016-05-11T04:08:34.095Z,22.79
2016-05-11T04:09:34.083Z,22.88
2016-05-11T04:10:34.069Z,22.82
2016-05-11T04:11:34.056Z,22.86
2016-05-11T04:12:34.043Z,22.85
2016-05-11T04:13:34.031Z,22.84
2016-05-11T04:14:34.018Z,22.81
2016-05-11T04:15:33.786Z,22.81
2016-05-11T04:16:33.991Z,22.79
2016-05-11T04:17:33.979Z,22.79
2016-05-11T04:18:33.951Z,22.78
2016-05-11T04:19:33.999Z,22.78
2016-05-11T04:20:33.956Z,22.82
2016-05-11T04:21:33.771Z,22.79
2016-05-11T04:22:33.820Z,22.82
2016-05-11T04:23:33.917Z,22.85
2016-05-11T04:24:33.748Z,22.82
2016-05-11T04:25:33.907Z,22.86
2016-05-11T04:26:33.863Z,22.85
2016-05-11T04:27:33.865Z,22.82
2016-05-11T04:28:33.696Z,22.86
2016-05-11T04:29:33.683Z,22.82
2016-05-11T04:30:33.998Z,22.82
2016-05-11T04:31:33.500Z,22.84
2016-05-11T04:32:33.660Z,22.88
2016-05-11T04:33:33.631Z,22.82
2016-05-11T04:34:33.680Z,22.84
2016-05-11T04:35:33.761Z,22.84
2016-05-11T04:36:33.764Z,22.81
2016-05-11T04:37:33.751Z,22.81
2016-05-11T04:38:33.739Z,22.86
2016-05-11T04:39:33.725Z,22.86
2016-05-11T04:40:33.713Z,22.85
2016-05-11T04:41:33.700Z,22.81
2016-05-11T04:42:33.733Z,22.86
2016-05-11T04:43:33.674Z,22.82
2016-05-11T04:44:33.661Z,22.84
2016-05-11T04:45:33.804Z,22.82
2016-05-11T04:46:33.635Z,22.82
2016-05-11T04:47:33.622Z,22.82
2016-05-11T04:48:33.468Z,22.84
2016-05-11T04:49:33.596Z,22.81
2016-05-11T04:50:33.740Z,22.81
2016-05-11T04:51:33.414Z,22.82
2016-05-11T04:52:33.588Z,22.84
2016-05-11T04:53:33.545Z,22.82
2016-05-11T04:54:33.547Z,22.81
2016-05-11T04:55:33.535Z,22.86
2016-05-11T04:56:33.536Z,22.81
2016-05-11T04:57:33.602Z,22.81
2016-05-11T04:58:33.511Z,22.89
2016-05-11T04:59:33.482Z,22.82
2016-05-11T05:00:33.828Z,22.81
2016-05-11T05:01:33.457Z,22.84
2016-05-11T05:02:33.459Z,22.86
2016-05-11T05:03:33.275Z,22.82
2016-05-11T05:04:33.434Z,22.79
2016-05-11T05:05:33.608Z,22.85
2016-05-11T05:06:33.408Z,22.81
2016-05-11T05:07:33.238Z,22.86
2016-05-11T05:08:33.397Z,22.85
2016-05-11T05:09:33.369Z,22.85
2016-05-11T05:10:33.356Z,22.82
2016-05-11T05:11:33.202Z,22.86
2016-05-11T05:12:33.330Z,22.86
2016-05-11T05:13:33.614Z,22.85
2016-05-11T05:14:33.304Z,22.89
2016-05-11T05:15:33.354Z,22.86
2016-05-11T05:16:33.278Z,22.88
2016-05-11T05:17:33.280Z,22.86
2016-05-11T05:18:33.283Z,22.86
2016-05-11T05:19:33.240Z,22.86
2016-05-11T05:20:33.242Z,22.85
2016-05-11T05:21:33.635Z,22.89
2016-05-11T05:22:33.216Z,22.91
2016-05-11T05:23:33.203Z,22.61
2016-05-11T05:24:33.191Z,22.35
2016-05-11T05:25:33.192Z,22.04
2016-05-11T05:26:33.180Z,21.94
2016-05-11T05:27:33.151Z,21.82
2016-05-11T05:28:33.154Z,21.81
2016-05-11T05:29:33.687Z,21.71
2016-05-11T05:30:33.176Z,21.67
2016-05-11T05:31:33.115Z,21.67
2016-05-11T05:32:33.103Z,21.58
2016-05-11T05:33:33.090Z,21.53
2016-05-11T05:34:33.076Z,21.61
2016-05-11T05:35:33.064Z,21.75
2016-05-11T05:36:32.910Z,21.86
2016-05-11T05:37:33.694Z,22.02
2016-05-11T05:38:32.869Z,22.09
2016-05-11T05:39:33.012Z,22.26
2016-05-11T05:40:32.999Z,22.24
2016-05-11T05:41:32.986Z,22.38
2016-05-11T05:42:32.989Z,22.38
2016-05-11T05:43:32.804Z,22.46
2016-05-11T05:44:32.963Z,22.48
2016-05-11T05:45:33.419Z,22.48
2016-05-11T05:46:32.937Z,22.45
2016-05-11T05:47:32.908Z,22.59
2016-05-11T05:48:32.911Z,22.52
2016-05-11T05:49:32.914Z,22.59
2016-05-11T05:50:32.885Z,22.61
2016-05-11T05:51:32.872Z,22.63
2016-05-11T05:52:32.859Z,22.61
2016-05-11T05:53:32.940Z,22.56
2016-05-11T05:54:32.693Z,22.67
2016-05-11T05:55:32.662Z,22.7
2016-05-11T05:56:32.823Z,22.66
2016-05-11T05:57:32.795Z,22.69
2016-05-11T05:58:32.779Z,22.74
2016-05-11T05:59:32.781Z,22.76
2016-05-11T06:00:32.975Z,22.72
2016-05-11T06:01:32.787Z,22.7
2016-05-11T06:02:32.727Z,22.76
2016-05-11T06:03:32.731Z,22.72
2016-05-11T06:04:32.561Z,22.74
2016-05-11T06:05:32.704Z,22.75
2016-05-11T06:06:32.691Z,22.76
2016-05-11T06:07:32.678Z,22.75
2016-05-11T06:08:32.665Z,22.81
2016-05-11T06:09:32.964Z,22.79
2016-05-11T06:10:32.515Z,22.79
2016-05-11T06:11:32.627Z,22.82
2016-05-11T06:12:32.613Z,22.81
2016-05-11T06:13:32.617Z,22.81
2016-05-11T06:14:32.447Z,22.79
2016-05-11T06:15:32.934Z,22.88
2016-05-11T06:16:32.624Z,22.84
2016-05-11T06:17:32.971Z,22.84
2016-05-11T06:18:32.708Z,22.85
2016-05-11T06:19:38.839Z,22.79
2016-05-11T06:20:37.903Z,22.85
2016-05-11T06:21:43.171Z,22.84
2016-05-11T06:22:37.691Z,22.86
2016-05-11T06:23:36.490Z,22.86
2016-05-11T06:24:37.304Z,22.84
2016-05-11T06:25:40.120Z,22.85
2016-05-11T06:26:32.463Z,22.88
2016-05-11T06:27:32.123Z,22.85
2016-05-11T06:28:34.969Z,22.86
2016-05-11T06:29:32.426Z,22.82
2016-05-11T06:30:32.334Z,22.84
2016-05-11T06:31:32.399Z,22.86
2016-05-11T06:32:32.745Z,22.84
2016-05-11T06:33:32.233Z,22.81
2016-05-11T06:34:32.220Z,22.79
2016-05-11T06:35:32.348Z,22.82
2016-05-11T06:36:32.195Z,22.84
2016-05-11T06:37:32.165Z,22.91
2016-05-11T06:38:32.309Z,22.86
2016-05-11T06:39:32.139Z,22.85
2016-05-11T06:40:32.751Z,22.86
2016-05-11T06:41:32.270Z,22.89
2016-05-11T06:42:32.272Z,22.86
2016-05-11T06:43:32.088Z,22.84
2016-05-11T06:44:32.246Z,22.85
2016-05-11T06:45:32.233Z,22.86
2016-05-11T06:46:32.222Z,22.82
2016-05-11T06:47:32.208Z,22.85
2016-05-11T06:48:32.586Z,22.84
2016-05-11T06:49:32.025Z,22.88
2016-05-11T06:50:32.169Z,22.88
2016-05-11T06:51:32.156Z,22.84
2016-05-11T06:52:31.987Z,22.82
2016-05-11T06:53:32.130Z,22.85
2016-05-11T06:54:32.118Z,22.85
2016-05-11T06:55:32.104Z,22.88
2016-05-11T06:56:32.451Z,22.82
2016-05-11T06:57:31.922Z,22.89
2016-05-11T06:58:31.924Z,22.89
2016-05-11T06:59:31.912Z,22.85
2016-05-11T07:00:32.243Z,22.88
2016-05-11T07:01:32.043Z,22.93
2016-05-11T07:02:32.030Z,22.89
2016-05-11T07:03:32.031Z,22.86
2016-05-11T07:04:32.660Z,22.91
2016-05-11T07:05:32.007Z,22.86
2016-05-11T07:06:32.009Z,22.85
2016-05-11T07:07:31.996Z,22.86
2016-05-11T07:08:31.951Z,22.89
2016-05-11T07:09:31.798Z,22.94
2016-05-11T07:10:31.629Z,22.93
2016-05-11T07:11:31.913Z,22.99
2016-05-11T07:12:32.759Z,22.99
2016-05-11T07:13:31.902Z,22.99
2016-05-11T07:14:31.890Z,22.88
2016-05-11T07:15:32.830Z,22.89
2016-05-11T07:16:31.864Z,22.89
2016-05-11T07:17:31.694Z,22.93
2016-05-11T07:18:31.682Z,22.99
2016-05-11T07:19:31.825Z,23.03
2016-05-11T07:20:31.905Z,22.97
2016-05-11T07:21:31.815Z,22.97
2016-05-11T07:22:31.646Z,22.94
2016-05-11T07:23:31.788Z,22.99
2016-05-11T07:24:31.604Z,23.03
2016-05-11T07:25:31.607Z,23.01
2016-05-11T07:26:31.859Z,23
2016-05-11T07:27:31.582Z,22.96
2016-05-11T07:28:31.975Z,23
2016-05-11T07:29:31.712Z,22.96
2016-05-11T07:30:31.542Z,23.06
2016-05-11T07:31:31.685Z,23.03
2016-05-11T07:32:31.360Z,23.06
2016-05-11T07:33:31.659Z,23.01
2016-05-11T07:34:31.646Z,23.03
2016-05-11T07:35:31.649Z,23.03
2016-05-11T07:36:32.824Z,23.04
2016-05-11T07:37:31.623Z,23.06
2016-05-11T07:38:31.454Z,23.04
2016-05-11T07:39:31.598Z,22.97
2016-05-11T07:40:31.585Z,23.04
2016-05-11T07:41:31.572Z,23.12
2016-05-11T07:42:31.559Z,23.07
2016-05-11T07:43:31.562Z,23.01
2016-05-11T07:44:31.939Z,23.15
2016-05-11T07:45:31.380Z,23.09
2016-05-11T07:46:31.523Z,23.19
2016-05-11T07:47:31.495Z,23.11
2016-05-11T07:48:31.325Z,23.12
2016-05-11T07:49:31.328Z,23.12
2016-05-11T07:50:31.455Z,23.01
2016-05-11T07:51:31.442Z,23.11
2016-05-11T07:52:31.444Z,23.07
2016-05-11T07:53:31.432Z,23.07
2016-05-11T07:54:31.420Z,23.14
2016-05-11T07:55:31.391Z,23.12
2016-05-11T07:56:31.394Z,23.06
2016-05-11T07:57:31.380Z,23.06
2016-05-11T07:58:31.210Z,23.14
2016-05-11T07:59:31.355Z,23.01
2016-05-11T08:00:31.561Z,23.01
2016-05-11T08:01:31.344Z,23.14
2016-05-11T08:02:31.332Z,23.09
2016-05-11T08:03:31.318Z,23.06
2016-05-11T08:04:31.306Z,23.12
2016-05-11T08:05:31.137Z,23.12
2016-05-11T08:06:31.296Z,23.11
2016-05-11T08:07:31.267Z,23.18
2016-05-11T08:08:31.270Z,23.18
2016-05-11T08:09:31.256Z,23.18
2016-05-11T08:10:31.228Z,23.14
2016-05-11T08:11:31.215Z,23.16
2016-05-11T08:12:31.218Z,23.16
2016-05-11T08:13:31.189Z,23.12
2016-05-11T08:14:31.192Z,23.16
2016-05-11T08:15:31.507Z,23.19
2016-05-11T08:16:31.009Z,23.18
2016-05-11T08:17:31.153Z,23.15
2016-05-11T08:18:30.969Z,23.14
2016-05-11T08:19:31.142Z,23.15
2016-05-11T08:20:31.130Z,23.15
2016-05-11T08:21:31.102Z,23.18
2016-05-11T08:22:31.088Z,23.19
2016-05-11T08:23:31.091Z,23.14
2016-05-11T08:24:31.063Z,23.19
2016-05-11T08:25:30.956Z,23.14
2016-05-11T08:26:30.896Z,23.14
2016-05-11T08:27:31.039Z,23.16
2016-05-11T08:28:31.027Z,23.18
2016-05-11T08:29:31.013Z,23.15
2016-05-11T08:30:30.876Z,23.18
2016-05-11T08:31:31.004Z,23.19
2016-05-11T08:32:30.974Z,23.18
2016-05-11T08:33:30.977Z,23.21
2016-05-11T08:34:30.949Z,23.18
2016-05-11T08:35:30.951Z,23.18
2016-05-11T08:36:30.923Z,23.16
2016-05-11T08:37:30.910Z,23.16
2016-05-11T08:38:30.897Z,23.16
2016-05-11T08:39:30.900Z,23.34
2016-05-11T08:40:30.887Z,23.19
2016-05-11T08:41:30.968Z,23.16
2016-05-11T08:42:30.861Z,23.18
2016-05-11T08:43:30.864Z,23.23
2016-05-11T08:44:30.679Z,23.26
2016-05-11T08:45:30.666Z,23.22
2016-05-11T08:46:30.809Z,23.25
2016-05-11T08:47:30.812Z,23.19
2016-05-11T08:48:30.783Z,23.29
2016-05-11T08:49:31.037Z,23.21
2016-05-11T08:50:30.773Z,23.19
2016-05-11T08:51:30.791Z,23.31
2016-05-11T08:52:30.763Z,23.21
2016-05-11T08:53:30.578Z,23.16
2016-05-11T08:54:30.721Z,23.18
2016-05-11T08:55:30.708Z,23.25
2016-05-11T08:56:30.711Z,23.22
2016-05-11T08:57:30.995Z,23.31
2016-05-11T08:58:30.669Z,23.31
2016-05-11T08:59:30.657Z,23.29
2016-05-11T09:00:31.082Z,23.25
2016-05-11T09:01:30.646Z,23.22
2016-05-11T09:02:30.633Z,23.23
2016-05-11T09:03:30.621Z,23.22
2016-05-11T09:04:30.593Z,23.26
2016-05-11T09:05:31.001Z,23.22
2016-05-11T09:06:30.581Z,23.22
2016-05-11T09:07:30.569Z,23.23
2016-05-11T09:08:30.556Z,23.31
2016-05-11T09:09:30.558Z,23.25
2016-05-11T09:10:30.546Z,23.31
2016-05-11T09:11:30.532Z,23.31
2016-05-11T09:12:30.520Z,23.23
2016-05-11T09:13:31.007Z,23.23
2016-05-11T09:14:30.337Z,23.29
2016-05-11T09:15:30.481Z,23.26
2016-05-11T09:16:30.311Z,23.25
2016-05-11T09:17:30.455Z,23.31
2016-05-11T09:18:30.442Z,23.34
2016-05-11T09:19:30.428Z,23.29
2016-05-11T09:20:30.276Z,23.23
2016-05-11T09:21:30.309Z,23.22
2016-05-11T09:22:30.391Z,23.23
2016-05-11T09:23:30.237Z,23.32
2016-05-11T09:24:30.380Z,23.34
2016-05-11T09:25:30.367Z,23.31
2016-05-11T09:26:30.355Z,23.25
2016-05-11T09:27:30.341Z,23.32
2016-05-11T09:28:30.328Z,23.32
2016-05-11T09:29:31.019Z,23.34
2016-05-11T09:30:30.474Z,23.32
2016-05-11T09:31:30.133Z,23.26
2016-05-11T09:32:30.277Z,23.37
2016-05-11T09:33:30.279Z,23.26
2016-05-11T09:34:30.266Z,23.35
2016-05-11T09:35:30.254Z,23.26
2016-05-11T09:36:30.224Z,23.35
2016-05-11T09:37:30.306Z,23.31
2016-05-11T09:38:30.214Z,23.26
2016-05-11T09:39:30.202Z,23.31
2016-05-11T09:40:30.190Z,23.26
2016-05-11T09:41:30.035Z,23.26
2016-05-11T09:42:30.163Z,23.35
2016-05-11T09:43:30.009Z,23.31
2016-05-11T09:44:30.153Z,23.35
2016-05-11T09:45:30.295Z,23.32
2016-05-11T09:46:30.126Z,23.26
2016-05-11T09:47:30.098Z,23.37
2016-05-11T09:48:29.961Z,23.29
2016-05-11T09:49:30.088Z,23.31
2016-05-11T09:50:30.075Z,23.31
2016-05-11T09:51:30.078Z,23.32
2016-05-11T09:52:30.065Z,23.31
2016-05-11T09:53:30.317Z,23.37
2016-05-11T09:54:30.039Z,23.25
2016-05-11T09:55:29.869Z,23.35
2016-05-11T09:56:29.997Z,23.26
2016-05-11T09:57:30.031Z,23.34
2016-05-11T09:58:29.831Z,23.31
2016-05-11T09:59:29.974Z,23.31
2016-05-11T10:00:29.836Z,23.35
2016-05-11T10:01:30.338Z,23.37
2016-05-11T10:02:29.935Z,23.34
2016-05-11T10:03:29.922Z,23.32
2016-05-11T10:04:29.924Z,23.31
2016-05-11T10:05:29.913Z,23.37
2016-05-11T10:06:29.899Z,23.34
2016-05-11T10:07:29.887Z,23.38
2016-05-11T10:08:30.077Z,23.39
2016-05-11T10:09:29.735Z,23.42
2016-05-11T10:10:29.863Z,23.44
2016-05-11T10:11:29.851Z,23.34
2016-05-11T10:12:29.821Z,23.38
2016-05-11T10:13:29.809Z,23.44
2016-05-11T10:14:29.796Z,23.41
2016-05-11T10:15:30.017Z,23.41
2016-05-11T10:16:29.942Z,23.42
2016-05-11T10:17:29.773Z,23.41
2016-05-11T10:18:29.791Z,23.44
2016-05-11T10:19:29.748Z,23.37
2016-05-11T10:20:29.578Z,23.39
2016-05-11T10:21:29.721Z,23.44
2016-05-11T10:22:29.708Z,23.35
2016-05-11T10:23:29.694Z,23.42
2016-05-11T10:24:29.995Z,23.35
2016-05-11T10:25:29.685Z,23.42
2016-05-11T10:26:29.500Z,23.38
2016-05-11T10:27:29.503Z,23.44
2016-05-11T10:28:29.661Z,23.42
2016-05-11T10:29:29.477Z,23.37
2016-05-11T10:30:29.464Z,23.42
2016-05-11T10:32:49.751Z,23.39
2016-05-11T10:33:01.941Z,23.45
2016-05-11T10:34:01.819Z,23.37
2016-05-11T10:35:01.758Z,23.39
2016-05-11T10:36:01.903Z,23.39
2016-05-11T10:37:01.888Z,23.45
2016-05-11T10:38:01.721Z,23.42
2016-05-11T10:39:01.879Z,23.41
2016-05-11T10:40:01.710Z,23.49
2016-05-11T10:41:02.104Z,23.41
2016-05-11T10:42:01.825Z,23.39
2016-05-11T10:43:01.827Z,23.39
2016-05-11T10:44:01.814Z,23.41
2016-05-11T10:45:01.801Z,23.45
2016-05-11T10:46:03.476Z,23.52
2016-05-11T10:47:01.775Z,23.44
2016-05-11T10:48:01.762Z,23.45
2016-05-11T10:49:04.765Z,23.45
2016-05-11T10:50:01.596Z,23.47
2016-05-11T10:51:01.739Z,23.41
2016-05-11T10:52:01.726Z,23.5
2016-05-11T10:53:01.729Z,23.39
2016-05-11T10:54:03.576Z,23.44
2016-05-11T10:55:01.531Z,23.38
2016-05-11T10:56:01.675Z,23.47
2016-05-11T10:57:02.021Z,23.44
2016-05-11T10:58:01.492Z,23.44
2016-05-11T10:59:01.355Z,23.47
2016-05-11T11:00:01.639Z,23.5
2016-05-11T11:01:02.235Z,23.45
2016-05-11T11:02:01.456Z,23.5
2016-05-11T11:03:01.600Z,23.44
2016-05-11T11:04:01.869Z,23.44
2016-05-11T11:05:02.011Z,23.56
2016-05-11T11:06:01.436Z,23.52
2016-05-11T11:07:01.549Z,23.56
2016-05-11T11:08:01.535Z,23.56
2016-05-11T11:09:03.694Z,23.56
2016-05-11T11:10:01.524Z,23.59
2016-05-11T11:11:01.356Z,23.57
2016-05-11T11:12:01.499Z,23.56
2016-05-11T11:13:02.126Z,23.56
2016-05-11T11:14:03.255Z,23.53
2016-05-11T11:15:01.304Z,23.63
2016-05-11T11:16:01.462Z,23.69
2016-05-11T11:17:01.278Z,23.68
2016-05-11T11:18:01.438Z,23.69
2016-05-11T11:19:02.815Z,23.67
2016-05-11T11:20:01.411Z,23.68
2016-05-11T11:21:02.149Z,23.68
2016-05-11T11:22:01.370Z,23.69
2016-05-11T11:23:01.388Z,23.69
2016-05-11T11:24:02.344Z,23.69
2016-05-11T11:25:01.362Z,23.71
2016-05-11T11:26:01.334Z,23.68
2016-05-11T11:27:01.320Z,23.71
2016-05-11T11:28:01.308Z,23.74
2016-05-11T11:29:02.998Z,23.75
2016-05-11T11:30:01.297Z,23.77
2016-05-11T11:31:01.300Z,23.75
2016-05-11T11:32:01.272Z,23.75
2016-05-11T11:33:01.259Z,23.87
2016-05-11T11:34:01.902Z,23.81
2016-05-11T11:35:01.217Z,23.86
2016-05-11T11:36:01.219Z,23.81
2016-05-11T11:37:01.300Z,23.9
2016-05-11T11:38:01.194Z,23.89
2016-05-11T11:39:03.399Z,23.87
2016-05-11T11:40:01.183Z,23.89
2016-05-11T11:41:01.015Z,23.92
2016-05-11T11:42:01.189Z,23.89
2016-05-11T11:43:01.176Z,23.97
2016-05-11T11:44:02.241Z,23.9
2016-05-11T11:45:01.322Z,23.99
2016-05-11T11:46:01.294Z,23.96
2016-05-11T11:47:01.140Z,23.87
2016-05-11T11:48:01.080Z,24.02
2016-05-11T11:49:01.505Z,23.96
2016-05-11T11:50:01.054Z,24
2016-05-11T11:51:00.884Z,24.08
2016-05-11T11:52:01.123Z,24.08
2016-05-11T11:53:01.312Z,24.08
2016-05-11T11:54:01.237Z,24.09
2016-05-11T11:55:01.005Z,24.15
2016-05-11T11:56:00.696Z,24.12
2016-05-11T11:57:00.823Z,24.06
2016-05-11T11:58:00.966Z,24.02
2016-05-11T11:59:02.985Z,23.97
2016-05-11T12:00:04.004Z,24.09
2016-05-11T12:01:01.178Z,24
2016-05-11T12:02:00.758Z,24.02
2016-05-11T12:03:00.902Z,24.12
2016-05-11T12:04:00.748Z,24.15
2016-05-11T12:05:00.735Z,24.09
2016-05-11T12:06:00.878Z,24.09
2016-05-11T12:07:00.725Z,24.16
2016-05-11T12:08:01.103Z,24.14
2016-05-11T12:09:00.543Z,24.15
2016-05-11T12:10:00.843Z,24.12
2016-05-11T12:11:00.830Z,24.15
2016-05-11T12:12:00.817Z,24.14
2016-05-11T12:13:00.647Z,24.15
2016-05-11T12:14:00.619Z,24.21
2016-05-11T12:15:00.777Z,24.16
2016-05-11T12:16:01.046Z,24.26
2016-05-11T12:17:00.768Z,24.19
2016-05-11T12:18:00.739Z,24.21
2016-05-11T12:19:00.570Z,24.19
2016-05-11T12:20:00.713Z,24.19
2016-05-11T12:21:00.701Z,24.16
2016-05-11T12:22:00.703Z,24.18
2016-05-11T12:23:00.690Z,24.26
2016-05-11T12:24:00.521Z,24.23
2016-05-11T12:25:00.664Z,24.21
2016-05-11T12:26:00.511Z,24.29
2016-05-11T12:27:00.639Z,24.29
2016-05-11T12:28:00.470Z,24.29
2016-05-11T12:29:00.628Z,24.24
2016-05-11T12:30:00.631Z,24.29
2016-05-11T12:31:00.445Z,24.33
2016-05-11T12:32:00.636Z,24.34
2016-05-11T12:33:00.576Z,24.39
2016-05-11T12:34:00.563Z,24.3
2016-05-11T12:35:00.253Z,24.33
2016-05-11T12:36:00.553Z,24.3
2016-05-11T12:37:00.550Z,24.36
2016-05-11T12:38:00.662Z,24.37
2016-05-11T12:39:00.619Z,24.37
2016-05-11T12:40:00.653Z,24.37
2016-05-11T12:41:00.703Z,24.26
2016-05-11T12:42:00.736Z,24.33
2016-05-11T12:43:00.740Z,24.33
2016-05-11T12:44:00.588Z,24.29
2016-05-11T12:45:00.733Z,24.39
2016-05-11T12:46:00.862Z,24.37
2016-05-11T12:47:00.750Z,24.41
2016-05-11T12:48:00.743Z,24.37
2016-05-11T12:49:00.752Z,24.42
2016-05-11T12:50:00.574Z,24.42
2016-05-11T12:51:00.723Z,24.42
2016-05-11T12:52:00.714Z,24.41
2016-05-11T12:53:00.734Z,24.39
2016-05-11T12:54:00.551Z,24.42